Harrisonburg, Louisiana
Current Conditions -  °F | °C
As of 12:55 PM on Friday 24 Oct 2014 (Local Time) from KHEZ Reporting Station
Clear Clear  
Wind Chill: 20°   Ceiling: Unl
Heat Index: 20°   Visibility: 10mi
Dew Point:   Wind: 8mph
Humidity: 43%   Direction: 20°NNE
Pressure: 30.14"   Gusts: NA
Location:  31.77°N, 91.82°W
Report Text: KHEZ 241755Z AUTO 02007KT 10SM CLR 20/07 A3014 RMK AO1 10200 20070 57010
Loading
Personal Weather Stations






























Interactive Weather Map
Tropical Storm Tracking
New forecast layout! Learn more

10-Day Weather Forecast

Advertisements
Track Severe Weather on mobile